createdAt,value
2023-04-22T00:00:25.737Z,7.88
2023-04-22T00:02:56.315Z,10.65
2023-04-22T00:05:24.070Z,9.93
2023-04-22T00:07:51.866Z,10.88
2023-04-22T00:10:19.259Z,9.13
2023-04-22T00:12:46.693Z,11.38
2023-04-22T00:15:14.032Z,11.07
2023-04-22T00:17:42.743Z,9.63
2023-04-22T00:20:12.728Z,11.70
2023-04-22T00:22:40.616Z,11.95
2023-04-22T00:25:08.883Z,11.32
2023-04-22T00:27:36.280Z,10.73
2023-04-22T00:30:04.396Z,9.70
2023-04-22T00:32:31.778Z,10.48
2023-04-22T00:34:59.332Z,8.77
2023-04-22T00:37:28.673Z,10.80
2023-04-22T00:39:57.844Z,10.95
2023-04-22T00:42:25.602Z,8.77
2023-04-22T00:44:53.763Z,10.32
2023-04-22T00:47:24.412Z,9.48
2023-04-22T00:49:53.250Z,10.90
2023-04-22T00:52:21.073Z,8.57
2023-04-22T00:54:49.975Z,10.45
2023-04-22T00:57:18.466Z,7.43
2023-04-22T00:59:46.622Z,9.38
2023-04-22T01:02:15.752Z,7.80
2023-04-22T01:04:43.331Z,8.80
2023-04-22T01:07:10.814Z,7.03
2023-04-22T01:09:40.138Z,6.15
2023-04-22T01:12:09.236Z,7.63
2023-04-22T01:14:36.783Z,6.78
2023-04-22T01:17:04.537Z,6.28
2023-04-22T01:19:32.854Z,5.65
2023-04-22T01:22:02.361Z,5.63
2023-04-22T01:24:31.522Z,6.88
2023-04-22T01:26:59.033Z,11.32
2023-04-22T01:29:26.844Z,5.70
2023-04-22T01:31:55.033Z,6.22
2023-04-22T01:34:22.878Z,8.07
2023-04-22T01:36:50.455Z,5.35
2023-04-22T01:39:18.425Z,4.20
2023-04-22T01:41:47.322Z,3.50
2023-04-22T01:44:14.793Z,4.78
2023-04-22T01:46:42.233Z,4.68
2023-04-22T01:49:09.817Z,4.32
2023-04-22T01:51:37.292Z,6.05
2023-04-22T01:54:05.717Z,4.22
2023-04-22T01:56:33.426Z,4.97
2023-04-22T01:59:02.218Z,4.43
2023-04-22T02:01:33.624Z,4.05
2023-04-22T02:04:01.147Z,6.18
2023-04-22T02:06:31.642Z,4.00
2023-04-22T02:08:59.046Z,4.82
2023-04-22T02:11:26.414Z,5.53
2023-04-22T02:13:53.750Z,4.90
2023-04-22T02:16:22.834Z,3.35
2023-04-22T02:18:50.360Z,3.50
2023-04-22T02:21:18.053Z,5.68
2023-04-22T02:23:45.424Z,3.75
2023-04-22T02:26:12.845Z,3.88
2023-04-22T02:28:41.541Z,5.30
2023-04-22T02:31:09.008Z,4.30
2023-04-22T02:33:37.841Z,3.90
2023-04-22T02:36:09.487Z,4.85
2023-04-22T02:38:38.155Z,4.13
2023-04-22T02:41:05.691Z,3.90
2023-04-22T02:43:33.100Z,3.97
2023-04-22T02:46:00.442Z,4.82
2023-04-22T02:48:27.975Z,3.42
2023-04-22T02:50:56.781Z,4.38
2023-04-22T02:53:24.127Z,4.25
2023-04-22T02:55:52.395Z,3.60
2023-04-22T02:58:19.883Z,5.50
2023-04-22T03:00:47.375Z,3.65
2023-04-22T03:03:15.115Z,5.28
2023-04-22T03:05:42.951Z,3.42
2023-04-22T03:08:11.834Z,4.10
2023-04-22T03:10:39.350Z,4.18
2023-04-22T03:13:07.660Z,4.38
2023-04-22T03:15:35.424Z,4.05
2023-04-22T03:18:03.348Z,4.07
2023-04-22T03:20:30.916Z,3.83
2023-04-22T03:22:58.292Z,6.43
2023-04-22T03:27:58.127Z,4.22
2023-04-22T03:30:26.246Z,4.28
2023-04-22T03:32:54.100Z,4.63
2023-04-22T03:38:03.664Z,4.45
2023-04-22T03:40:35.774Z,4.18
2023-04-22T03:43:09.462Z,4.82
2023-04-22T03:45:37.168Z,4.68
2023-04-22T03:48:24.482Z,7.32
2023-04-22T03:50:53.696Z,4.97
2023-04-22T03:53:21.220Z,9.02
2023-04-22T03:55:50.975Z,6.22
2023-04-22T03:58:19.443Z,6.20
2023-04-22T04:00:48.174Z,5.65
2023-04-22T04:03:17.960Z,5.82
2023-04-22T04:05:48.777Z,4.78
2023-04-22T04:08:16.550Z,5.82
2023-04-22T04:10:44.537Z,4.88
2023-04-22T04:13:13.585Z,4.63
2023-04-22T04:15:52.577Z,5.20
2023-04-22T04:18:21.523Z,5.15
2023-04-22T04:20:49.816Z,4.68
2023-04-22T04:23:17.324Z,5.53
2023-04-22T04:25:46.349Z,5.63
2023-04-22T04:28:17.623Z,5.75
2023-04-22T04:30:45.407Z,5.43
2023-04-22T04:33:13.077Z,6.13
2023-04-22T04:35:44.793Z,4.68
2023-04-22T04:38:16.647Z,5.95
2023-04-22T04:40:45.733Z,4.57
2023-04-22T04:43:19.649Z,4.63
2023-04-22T04:45:51.854Z,4.57
2023-04-22T04:48:27.075Z,4.35
2023-04-22T04:51:00.720Z,6.22
2023-04-22T04:53:31.127Z,4.90
2023-04-22T04:55:58.621Z,6.07
2023-04-22T04:58:29.603Z,6.50
2023-04-22T05:01:15.633Z,5.68
2023-04-22T05:03:45.004Z,4.65
2023-04-22T05:06:15.034Z,5.88
2023-04-22T05:08:47.543Z,5.15
2023-04-22T05:11:15.057Z,5.75
2023-04-22T05:13:46.286Z,4.90
2023-04-22T05:16:19.868Z,5.55
2023-04-22T05:18:47.409Z,6.43
2023-04-22T05:21:16.750Z,6.90
2023-04-22T05:23:45.620Z,6.03
2023-04-22T05:26:14.127Z,5.32
2023-04-22T05:28:43.672Z,6.57
2023-04-22T05:31:12.504Z,5.47
2023-04-22T05:33:40.234Z,4.00
2023-04-22T05:36:08.025Z,6.88
2023-04-22T05:38:35.959Z,5.15
2023-04-22T05:41:03.397Z,6.20
2023-04-22T05:43:31.424Z,6.97
2023-04-22T05:48:38.565Z,5.13
2023-04-22T05:51:12.939Z,5.07
2023-04-22T05:53:40.674Z,4.97
2023-04-22T05:56:08.056Z,4.95
2023-04-22T05:58:35.438Z,4.97
2023-04-22T06:01:10.003Z,4.82
2023-04-22T06:03:59.357Z,5.05
2023-04-22T06:06:27.441Z,6.28
2023-04-22T06:08:55.001Z,6.28
2023-04-22T06:11:22.466Z,6.10
2023-04-22T06:13:49.885Z,5.45
2023-04-22T06:16:17.306Z,3.97
2023-04-22T06:18:44.648Z,4.38
2023-04-22T06:21:14.145Z,4.22
2023-04-22T06:23:42.710Z,4.72
2023-04-22T06:26:10.150Z,5.88
2023-04-22T06:28:39.786Z,5.85
2023-04-22T06:31:13.299Z,5.18
2023-04-22T06:33:41.241Z,3.58
2023-04-22T06:36:09.102Z,4.50
2023-04-22T06:38:39.370Z,3.05
2023-04-22T06:41:25.391Z,3.60
2023-04-22T06:43:56.689Z,4.10
2023-04-22T06:46:42.914Z,3.63
2023-04-22T06:49:28.877Z,3.70
2023-04-22T06:52:16.564Z,4.47
2023-04-22T06:54:45.473Z,4.55
2023-04-22T06:57:12.902Z,5.50
2023-04-22T06:59:40.644Z,8.10
2023-04-22T07:02:08.687Z,3.78
2023-04-22T07:04:39.376Z,4.28
2023-04-22T07:07:07.651Z,4.93
2023-04-22T07:09:36.399Z,4.47
2023-04-22T07:12:05.720Z,5.35
2023-04-22T07:14:33.572Z,5.55
2023-04-22T07:17:00.969Z,5.20
2023-04-22T07:19:28.559Z,3.40
2023-04-22T07:21:55.922Z,4.05
2023-04-22T07:24:23.619Z,3.10
2023-04-22T07:26:51.004Z,3.80
2023-04-22T07:29:19.899Z,4.30
2023-04-22T07:31:47.421Z,3.30
2023-04-22T07:34:14.986Z,3.15
2023-04-22T07:36:42.512Z,2.85
2023-04-22T07:39:09.995Z,3.45
2023-04-22T07:41:37.508Z,3.47
2023-04-22T07:44:04.976Z,4.05
2023-04-22T07:46:34.916Z,4.25
2023-04-22T07:49:02.368Z,4.15
2023-04-22T07:51:29.905Z,3.83
2023-04-22T07:53:57.466Z,4.43
2023-04-22T07:56:24.962Z,4.10
2023-04-22T07:58:52.363Z,3.88
2023-04-22T08:01:20.220Z,3.60
2023-04-22T08:03:49.390Z,5.72
2023-04-22T08:06:17.399Z,3.17
2023-04-22T08:08:44.960Z,3.35
2023-04-22T08:11:12.865Z,5.13
2023-04-22T08:13:41.008Z,2.78
2023-04-22T08:16:08.414Z,3.55
2023-04-22T08:18:36.057Z,3.05
2023-04-22T08:21:05.044Z,3.40
2023-04-22T08:23:32.443Z,3.92
2023-04-22T08:26:00.119Z,3.55
2023-04-22T08:28:27.551Z,6.60
2023-04-22T08:30:55.252Z,4.07
2023-04-22T08:33:23.791Z,3.10
2023-04-22T08:35:53.102Z,5.30
2023-04-22T08:38:21.844Z,3.28
2023-04-22T08:40:49.633Z,3.58
2023-04-22T08:43:18.126Z,2.45
2023-04-22T08:45:45.953Z,2.65
2023-04-22T08:48:14.602Z,3.70
2023-04-22T08:50:42.408Z,2.20
2023-04-22T08:53:09.830Z,4.88
2023-04-22T08:55:39.217Z,3.45
2023-04-22T08:58:07.212Z,3.55
2023-04-22T09:00:34.839Z,3.97
2023-04-22T09:03:05.875Z,2.17
2023-04-22T09:05:36.422Z,3.45
2023-04-22T09:08:04.256Z,2.17
2023-04-22T09:10:33.610Z,4.88
2023-04-22T09:13:04.797Z,2.97
2023-04-22T09:15:32.401Z,3.10
2023-04-22T09:17:59.987Z,3.97
2023-04-22T09:20:28.871Z,3.50
2023-04-22T09:23:01.828Z,3.22
2023-04-22T09:25:29.195Z,2.67
2023-04-22T09:27:58.559Z,3.85
2023-04-22T09:30:30.037Z,3.72
2023-04-22T09:32:58.950Z,2.40
2023-04-22T09:35:28.158Z,2.63
2023-04-22T09:37:55.799Z,2.38
2023-04-22T09:40:23.586Z,2.35
2023-04-22T09:42:52.689Z,4.00
2023-04-22T09:45:29.477Z,2.00
2023-04-22T09:48:00.292Z,3.10
2023-04-22T09:50:28.836Z,2.78
2023-04-22T09:53:00.957Z,3.45
2023-04-22T09:55:30.256Z,2.20
2023-04-22T09:57:58.267Z,2.40
2023-04-22T10:00:31.082Z,4.78
2023-04-22T10:02:58.935Z,3.50
2023-04-22T10:05:27.035Z,3.92
2023-04-22T10:07:54.487Z,2.90
2023-04-22T10:10:22.776Z,2.83
2023-04-22T10:12:51.674Z,2.63
2023-04-22T10:15:19.275Z,3.78
2023-04-22T10:17:50.673Z,3.08
2023-04-22T10:20:20.087Z,4.38
2023-04-22T10:22:47.822Z,5.20
2023-04-22T10:25:23.126Z,3.60
2023-04-22T10:27:55.294Z,4.05
2023-04-22T10:30:30.754Z,3.90
2023-04-22T10:33:35.068Z,2.25
2023-04-22T10:36:08.505Z,2.10
2023-04-22T10:38:37.102Z,3.70
2023-04-22T10:41:04.805Z,5.03
2023-04-22T10:43:42.915Z,2.45
2023-04-22T10:46:45.394Z,3.03
2023-04-22T10:49:15.741Z,3.72
2023-04-22T10:51:46.178Z,3.42
2023-04-22T10:54:57.942Z,2.15
2023-04-22T10:57:36.211Z,3.22
2023-04-22T11:00:35.233Z,2.58
2023-04-22T11:03:14.987Z,1.90
2023-04-22T11:05:43.921Z,2.42
2023-04-22T11:08:23.484Z,1.90
2023-04-22T11:10:51.690Z,3.80
2023-04-22T11:13:21.279Z,1.60
2023-04-22T11:15:50.788Z,3.60
2023-04-22T11:18:20.938Z,2.40
2023-04-22T11:20:49.770Z,1.73
2023-04-22T11:23:19.789Z,2.35
2023-04-22T11:25:53.460Z,1.92
2023-04-22T11:28:22.811Z,2.35
2023-04-22T11:30:51.179Z,1.63
2023-04-22T11:33:19.697Z,4.22
2023-04-22T11:35:49.624Z,2.90
2023-04-22T11:38:17.239Z,2.33
2023-04-22T11:43:18.468Z,2.88
2023-04-22T11:45:46.379Z,3.78
2023-04-22T11:48:15.559Z,3.10
2023-04-22T11:50:45.929Z,2.88
2023-04-22T11:53:15.341Z,2.65
2023-04-22T11:55:44.393Z,2.25
2023-04-22T11:58:14.718Z,2.38
2023-04-22T12:00:45.383Z,2.55
2023-04-22T12:03:15.768Z,2.65
2023-04-22T12:05:45.450Z,2.60
2023-04-22T12:08:15.287Z,2.22
2023-04-22T12:10:45.095Z,1.90
2023-04-22T12:13:19.586Z,1.75
2023-04-22T12:15:49.447Z,5.15
2023-04-22T12:18:16.921Z,2.08
2023-04-22T12:20:44.380Z,1.95
2023-04-22T12:23:14.346Z,2.53
2023-04-22T12:25:43.172Z,2.10
2023-04-22T12:28:11.366Z,2.10
2023-04-22T12:30:38.787Z,2.83
2023-04-22T12:33:07.695Z,3.08
2023-04-22T12:35:35.442Z,2.97
2023-04-22T12:40:30.521Z,2.67
2023-04-22T12:42:57.901Z,2.67
2023-04-22T12:45:25.389Z,3.47
2023-04-22T12:47:55.904Z,4.47
2023-04-22T12:50:24.789Z,4.65
2023-04-22T12:52:52.201Z,2.67
2023-04-22T12:55:20.872Z,4.10
2023-04-22T12:57:53.060Z,5.80
2023-04-22T13:00:20.767Z,3.05
2023-04-22T13:05:17.036Z,2.58
2023-04-22T13:07:53.174Z,3.28
2023-04-22T13:10:28.438Z,3.72
2023-04-22T13:13:00.538Z,3.67
2023-04-22T13:15:37.714Z,2.55
2023-04-22T13:18:05.258Z,3.03
2023-04-22T13:20:32.760Z,2.88
2023-04-22T13:23:02.344Z,3.72
2023-04-22T13:25:29.991Z,3.97
2023-04-22T13:27:57.372Z,3.05
2023-04-22T13:30:24.855Z,3.72
2023-04-22T13:32:52.336Z,2.97
2023-04-22T13:35:19.904Z,3.50
2023-04-22T13:37:47.367Z,3.80
2023-04-22T13:40:16.397Z,5.38
2023-04-22T13:42:44.449Z,4.97
2023-04-22T13:45:12.041Z,3.83
2023-04-22T13:47:39.541Z,4.15
2023-04-22T13:50:09.054Z,2.75
2023-04-22T13:52:36.732Z,3.08
2023-04-22T13:55:04.774Z,8.73
2023-04-22T13:57:33.624Z,3.45
2023-04-22T14:00:01.104Z,2.08
2023-04-22T14:02:28.706Z,3.75
2023-04-22T14:04:56.407Z,3.63
2023-04-22T14:07:23.810Z,3.60
2023-04-22T14:09:51.263Z,2.72
2023-04-22T14:12:18.791Z,2.60
2023-04-22T14:14:47.624Z,3.78
2023-04-22T14:17:15.064Z,2.65
2023-04-22T14:19:44.947Z,7.15
2023-04-22T14:22:12.526Z,3.15
2023-04-22T14:24:39.965Z,3.55
2023-04-22T14:27:07.425Z,4.07
2023-04-22T14:29:34.812Z,5.78
2023-04-22T14:32:03.653Z,5.15
2023-04-22T14:34:31.201Z,3.80
2023-04-22T14:36:59.546Z,2.45
2023-04-22T14:39:26.960Z,2.60
2023-04-22T14:41:55.418Z,2.35
2023-04-22T14:44:22.908Z,4.22
2023-04-22T14:46:50.383Z,3.95
2023-04-22T14:49:19.176Z,5.75
2023-04-22T14:51:47.048Z,2.70
2023-04-22T14:54:14.520Z,3.08
2023-04-22T14:56:41.920Z,4.22
2023-04-22T14:59:09.340Z,3.70
2023-04-22T15:01:40.623Z,3.50
2023-04-22T15:04:08.244Z,3.70
2023-04-22T15:06:37.070Z,4.93
2023-04-22T15:09:04.569Z,3.63
2023-04-22T15:11:32.044Z,3.70
2023-04-22T15:13:59.519Z,2.70
2023-04-22T15:16:27.051Z,3.58
2023-04-22T15:18:54.898Z,3.10
2023-04-22T15:21:22.345Z,3.28
2023-04-22T15:23:51.250Z,4.20
2023-04-22T15:26:18.814Z,2.95
2023-04-22T15:28:46.330Z,3.95
2023-04-22T15:31:13.800Z,3.90
2023-04-22T15:33:41.443Z,3.92
2023-04-22T15:36:09.708Z,8.55
2023-04-22T15:38:38.599Z,7.90
2023-04-22T15:41:07.388Z,4.57
2023-04-22T15:43:34.907Z,5.65
2023-04-22T15:46:02.446Z,4.35
2023-04-22T15:48:30.063Z,5.00
2023-04-22T15:50:57.568Z,3.35
2023-04-22T15:53:25.327Z,4.60
2023-04-22T15:55:52.804Z,6.70
2023-04-22T15:58:21.624Z,3.83
2023-04-22T16:00:49.042Z,7.18
2023-04-22T16:03:17.394Z,10.82
2023-04-22T16:05:45.033Z,9.77
2023-04-22T16:08:13.422Z,9.98
2023-04-22T16:10:40.946Z,11.77
2023-04-22T16:13:16.851Z,16.45
2023-04-22T16:15:47.062Z,14.70
2023-04-22T16:18:14.677Z,11.45
2023-04-22T16:20:42.145Z,12.25
2023-04-22T16:23:09.587Z,29.00
2023-04-22T16:25:37.027Z,8.93
2023-04-22T16:28:04.502Z,8.52
2023-04-22T16:30:32.002Z,7.32
2023-04-22T16:33:00.928Z,5.82
2023-04-22T16:35:28.493Z,5.25
2023-04-22T16:37:55.894Z,5.63
2023-04-22T16:40:23.368Z,5.10
2023-04-22T16:42:51.308Z,8.50
2023-04-22T16:47:46.560Z,16.08
2023-04-22T16:50:15.505Z,15.60
2023-04-22T16:52:42.970Z,11.20
2023-04-22T16:55:10.402Z,8.27
2023-04-22T16:57:37.908Z,4.63
2023-04-22T17:00:06.455Z,5.32
2023-04-22T17:02:34.443Z,4.68
2023-04-22T17:05:03.099Z,4.72
2023-04-22T17:07:32.145Z,6.95
2023-04-22T17:09:59.596Z,7.97
2023-04-22T17:12:27.185Z,8.18
2023-04-22T17:14:54.649Z,5.78
2023-04-22T17:17:22.325Z,7.28
2023-04-22T17:19:49.820Z,7.95
2023-04-22T17:22:17.553Z,7.75
2023-04-22T17:24:46.627Z,5.72
2023-04-22T17:27:15.095Z,7.63
2023-04-22T17:29:42.770Z,5.63
2023-04-22T17:32:10.496Z,5.00
2023-04-22T17:34:38.361Z,5.63
2023-04-22T17:37:06.006Z,8.57
2023-04-22T17:39:33.676Z,7.93
2023-04-22T17:42:02.616Z,5.63
2023-04-22T17:44:31.036Z,7.43
2023-04-22T17:46:58.669Z,5.72
2023-04-22T17:49:26.427Z,6.63
2023-04-22T17:51:54.281Z,5.25
2023-04-22T17:54:21.959Z,3.95
2023-04-22T17:56:49.401Z,7.28
2023-04-22T17:59:18.763Z,5.80
2023-04-22T18:01:46.415Z,6.00
2023-04-22T18:04:14.044Z,6.03
2023-04-22T18:06:41.768Z,6.82
2023-04-22T18:09:09.419Z,8.20
2023-04-22T18:11:36.974Z,9.13
2023-04-22T18:14:04.583Z,6.45
2023-04-22T18:16:33.570Z,5.03
2023-04-22T18:19:02.218Z,5.45
2023-04-22T18:21:29.878Z,7.00
2023-04-22T18:23:57.699Z,4.47
2023-04-22T18:26:25.231Z,4.53
2023-04-22T18:28:52.662Z,4.53
2023-04-22T18:31:21.038Z,4.50
2023-04-22T18:33:49.913Z,3.85
2023-04-22T18:36:18.420Z,4.68
2023-04-22T18:38:45.847Z,3.17
2023-04-22T18:41:13.610Z,3.05
2023-04-22T18:43:41.540Z,5.03
2023-04-22T18:46:09.147Z,5.10
2023-04-22T18:48:37.113Z,4.57
2023-04-22T18:51:06.222Z,3.53
2023-04-22T18:53:34.338Z,3.92
2023-04-22T18:56:01.925Z,4.07
2023-04-22T18:58:29.407Z,4.75
2023-04-22T19:00:57.198Z,6.30
2023-04-22T19:03:24.943Z,2.97
2023-04-22T19:05:52.588Z,4.70
2023-04-22T19:08:21.332Z,7.22
2023-04-22T19:10:48.842Z,4.70
2023-04-22T19:13:28.464Z,4.95
2023-04-22T19:15:57.433Z,4.50
2023-04-22T19:18:25.214Z,5.68
2023-04-22T19:20:52.984Z,6.75
2023-04-22T19:23:22.035Z,3.15
2023-04-22T19:25:49.563Z,5.28
2023-04-22T19:28:17.146Z,5.55
2023-04-22T19:30:44.729Z,3.75
2023-04-22T19:33:12.428Z,3.97
2023-04-22T19:35:39.919Z,4.70
2023-04-22T19:38:07.482Z,4.80
2023-04-22T19:40:36.569Z,2.83
2023-04-22T19:43:04.355Z,5.53
2023-04-22T19:45:31.823Z,4.25
2023-04-22T19:47:59.877Z,5.10
2023-04-22T19:50:27.881Z,7.03
2023-04-22T19:53:03.454Z,5.57
2023-04-22T19:55:32.131Z,3.83
2023-04-22T19:58:01.076Z,4.20
2023-04-22T20:00:30.885Z,4.65
2023-04-22T20:02:59.046Z,5.47
2023-04-22T20:05:27.373Z,3.55
2023-04-22T20:07:58.438Z,4.72
2023-04-22T20:10:26.931Z,4.32
2023-04-22T20:12:55.173Z,4.15
2023-04-22T20:15:24.478Z,4.68
2023-04-22T20:17:52.558Z,6.03
2023-04-22T20:20:21.701Z,4.57
2023-04-22T20:22:52.305Z,7.18
2023-04-22T20:25:19.945Z,7.32
2023-04-22T20:27:48.613Z,7.60
2023-04-22T20:30:16.526Z,5.03
2023-04-22T20:32:45.759Z,4.80
2023-04-22T20:35:16.470Z,6.13
2023-04-22T20:37:46.223Z,4.10
2023-04-22T20:40:15.001Z,4.60
2023-04-22T20:42:42.600Z,5.33
2023-04-22T20:45:15.043Z,4.95
2023-04-22T20:47:42.798Z,5.43
2023-04-22T20:50:13.304Z,5.18
2023-04-22T20:52:40.843Z,5.57
2023-04-22T20:55:09.162Z,5.93
2023-04-22T21:00:07.041Z,5.18
2023-04-22T21:02:36.218Z,5.10
2023-04-22T21:05:05.275Z,5.68
2023-04-22T21:07:34.926Z,5.22
2023-04-22T21:10:02.781Z,4.50
2023-04-22T21:12:31.333Z,6.00
2023-04-22T21:14:59.574Z,7.22
2023-04-22T21:17:30.704Z,6.38
2023-04-22T21:19:58.568Z,4.70
2023-04-22T21:22:26.291Z,5.00
2023-04-22T21:24:55.678Z,5.03
2023-04-22T21:27:23.741Z,5.18
2023-04-22T21:29:51.860Z,5.53
2023-04-22T21:32:20.485Z,6.05
2023-04-22T21:34:48.069Z,6.18
2023-04-22T21:37:15.689Z,5.55
2023-04-22T21:39:43.216Z,5.55
2023-04-22T21:42:12.023Z,4.50
2023-04-22T21:44:39.501Z,4.45
2023-04-22T21:47:07.160Z,5.78
2023-04-22T21:49:34.717Z,6.78
2023-04-22T21:52:02.242Z,6.22
2023-04-22T21:54:30.100Z,4.88
2023-04-22T21:56:57.678Z,5.47
2023-04-22T21:59:26.576Z,5.60
2023-04-22T22:01:54.146Z,5.40
2023-04-22T22:04:22.057Z,5.60
2023-04-22T22:06:49.670Z,7.05
2023-04-22T22:09:17.213Z,9.13
2023-04-22T22:11:44.665Z,6.45
2023-04-22T22:14:12.188Z,7.22
2023-04-22T22:16:41.182Z,8.07
2023-04-22T22:19:11.389Z,6.43
2023-04-22T22:21:38.885Z,4.75
2023-04-22T22:24:09.281Z,5.47
2023-04-22T22:26:36.816Z,5.50
2023-04-22T22:29:04.358Z,5.45
2023-04-22T22:31:31.956Z,5.25
2023-04-22T22:34:00.914Z,4.75
2023-04-22T22:36:28.440Z,5.38
2023-04-22T22:38:55.953Z,4.75
2023-04-22T22:41:23.334Z,8.13
2023-04-22T22:43:51.007Z,4.75
2023-04-22T22:46:18.666Z,6.43
2023-04-22T22:48:46.707Z,4.93
2023-04-22T22:51:18.426Z,7.15
2023-04-22T22:53:46.225Z,5.93
2023-04-22T22:56:15.295Z,8.32
2023-04-22T22:58:42.761Z,4.43
2023-04-22T23:01:10.241Z,5.68
2023-04-22T23:03:38.174Z,7.40
2023-04-22T23:06:06.920Z,6.07
2023-04-22T23:08:35.907Z,5.13
2023-04-22T23:11:03.492Z,5.72
2023-04-22T23:13:31.052Z,7.90
2023-04-22T23:15:58.706Z,6.13
2023-04-22T23:18:27.409Z,7.47
2023-04-22T23:20:55.327Z,6.85
2023-04-22T23:23:23.501Z,7.28
2023-04-22T23:25:53.166Z,6.03
2023-04-22T23:28:21.111Z,7.85
2023-04-22T23:30:50.580Z,7.18
2023-04-22T23:33:23.911Z,7.53
2023-04-22T23:35:53.243Z,5.40
2023-04-22T23:38:20.663Z,5.55
2023-04-22T23:40:48.190Z,5.60
2023-04-22T23:43:17.091Z,6.13
2023-04-22T23:45:45.246Z,6.55
2023-04-22T23:48:12.817Z,8.15
2023-04-22T23:50:40.588Z,7.40
2023-04-22T23:53:08.441Z,6.38
2023-04-22T23:55:36.882Z,8.32
2023-04-22T23:58:04.647Z,5.53
